createdAt,value
2023-04-21T00:02:52.725Z,11.50
2023-04-21T00:07:56.011Z,11.50
2023-04-21T00:13:00.619Z,11.50
2023-04-21T00:18:03.932Z,11.50
2023-04-21T00:23:07.158Z,11.40
2023-04-21T00:28:11.678Z,11.40
2023-04-21T00:33:14.830Z,11.30
2023-04-21T00:38:17.916Z,11.30
2023-04-21T00:43:22.440Z,11.30
2023-04-21T00:48:25.658Z,11.40
2023-04-21T00:53:28.976Z,11.40
2023-04-21T00:58:34.701Z,11.40
2023-04-21T01:03:38.106Z,11.30
2023-04-21T01:08:41.768Z,11.30
2023-04-21T01:13:46.316Z,11.30
2023-04-21T01:18:49.507Z,11.30
2023-04-21T01:23:54.344Z,11.20
2023-04-21T01:28:58.878Z,11.20
2023-04-21T01:34:05.264Z,11.10
2023-04-21T01:39:09.814Z,11.10
2023-04-21T01:44:12.990Z,11.20
2023-04-21T01:49:16.288Z,11.20
2023-04-21T01:54:20.830Z,11.10
2023-04-21T01:59:23.923Z,11.10
2023-04-21T02:04:27.239Z,11.10
2023-04-21T02:09:32.703Z,11.10
2023-04-21T02:14:35.859Z,11.10
2023-04-21T02:19:38.964Z,11.10
2023-04-21T02:24:43.469Z,11.10
2023-04-21T02:29:46.702Z,11.00
2023-04-21T02:34:50.018Z,10.90
2023-04-21T02:39:54.487Z,10.80
2023-04-21T02:44:57.643Z,10.80
2023-04-21T02:50:01.067Z,10.70
2023-04-21T02:55:06.014Z,10.70
2023-04-21T03:00:12.521Z,10.70
2023-04-21T03:05:16.114Z,10.70
2023-04-21T03:10:20.593Z,10.70
2023-04-21T03:15:23.956Z,10.70
2023-04-21T03:20:27.096Z,10.80
2023-04-21T03:25:31.601Z,10.80
2023-04-21T03:30:34.895Z,10.80
2023-04-21T03:35:38.060Z,10.90
2023-04-21T03:40:42.601Z,10.90
2023-04-21T03:45:45.697Z,11.00
2023-04-21T03:50:48.862Z,11.00
2023-04-21T03:55:53.451Z,11.00
2023-04-21T04:00:56.528Z,11.00
2023-04-21T04:05:59.628Z,11.00
2023-04-21T04:11:04.164Z,11.00
2023-04-21T04:16:08.254Z,11.00
2023-04-21T04:21:11.583Z,10.90
2023-04-21T04:26:16.257Z,10.90
2023-04-21T04:31:19.537Z,10.80
2023-04-21T04:36:22.803Z,10.80
2023-04-21T04:41:27.351Z,10.80
2023-04-21T04:46:30.469Z,10.80
2023-04-21T04:51:33.860Z,10.90
2023-04-21T04:56:38.558Z,10.90
2023-04-21T05:01:42.443Z,10.90
2023-04-21T05:06:45.606Z,10.90
2023-04-21T05:11:50.130Z,10.90
2023-04-21T05:16:53.334Z,11.00
2023-04-21T05:22:01.125Z,10.90
2023-04-21T05:27:05.806Z,11.00
2023-04-21T05:32:09.248Z,11.00
2023-04-21T05:37:12.881Z,11.00
2023-04-21T05:42:18.350Z,11.00
2023-04-21T05:47:21.506Z,11.10
2023-04-21T05:52:24.681Z,11.10
2023-04-21T05:57:29.173Z,11.10
2023-04-21T06:02:32.361Z,11.10
2023-04-21T06:07:38.232Z,11.10
2023-04-21T06:12:42.651Z,11.20
2023-04-21T06:17:45.839Z,11.20
2023-04-21T06:22:48.968Z,11.30
2023-04-21T06:27:53.446Z,11.30
2023-04-21T06:32:56.531Z,11.40
2023-04-21T06:37:59.683Z,11.40
2023-04-21T06:43:04.274Z,11.50
2023-04-21T06:48:07.735Z,11.50
2023-04-21T06:53:11.568Z,11.60
2023-04-21T06:58:16.134Z,11.60
2023-04-21T07:03:19.432Z,11.70
2023-04-21T07:08:22.634Z,11.80
2023-04-21T07:13:27.138Z,11.80
2023-04-21T07:18:30.436Z,11.80
2023-04-21T07:23:33.504Z,11.90
2023-04-21T07:28:38.783Z,12.00
2023-04-21T07:33:41.863Z,12.10
2023-04-21T07:38:45.044Z,12.20
2023-04-21T07:43:50.427Z,12.40
2023-04-21T07:48:54.450Z,12.50
2023-04-21T07:53:57.561Z,12.60
2023-04-21T07:59:05.048Z,12.80
2023-04-21T08:04:08.303Z,13.00
2023-04-21T08:09:11.492Z,13.20
2023-04-21T08:14:16.393Z,13.50
2023-04-21T08:19:20.006Z,13.70
2023-04-21T08:24:23.464Z,14.00
2023-04-21T08:29:28.156Z,14.30
2023-04-21T08:34:31.400Z,14.50
2023-04-21T08:39:34.747Z,14.70
2023-04-21T08:44:41.571Z,15.00
2023-04-21T08:49:45.686Z,15.20
2023-04-21T08:54:51.979Z,15.30
2023-04-21T08:59:56.626Z,15.60
2023-04-21T09:05:00.103Z,15.80
2023-04-21T09:10:03.887Z,16.00
2023-04-21T09:15:11.953Z,16.20
2023-04-21T09:20:16.958Z,16.50
2023-04-21T09:25:22.126Z,16.60
2023-04-21T09:30:26.713Z,16.80
2023-04-21T09:35:30.403Z,16.90
2023-04-21T09:40:34.717Z,17.10
2023-04-21T09:45:40.875Z,17.20
2023-04-21T09:55:52.861Z,17.60
2023-04-21T10:00:59.062Z,17.80
2023-04-21T10:06:02.251Z,18.00
2023-04-21T10:11:06.277Z,18.10
2023-04-21T10:16:11.403Z,18.20
2023-04-21T10:21:21.706Z,18.40
2023-04-21T10:26:27.082Z,18.50
2023-04-21T10:31:36.452Z,18.60
2023-04-21T10:36:48.286Z,18.80
2023-04-21T10:41:51.443Z,19.00
2023-04-21T10:46:56.575Z,19.10
2023-04-21T10:52:08.586Z,19.30
2023-04-21T10:57:13.889Z,19.50
2023-04-21T11:02:19.936Z,19.60
2023-04-21T11:07:24.197Z,19.60
2023-04-21T11:12:30.756Z,19.80
2023-04-21T11:17:35.861Z,19.80
2023-04-21T11:22:39.475Z,19.90
2023-04-21T11:27:42.607Z,20.00
2023-04-21T11:32:48.354Z,20.10
2023-04-21T11:37:52.742Z,20.10
2023-04-21T11:42:56.180Z,20.20
2023-04-21T11:53:30.247Z,20.40
2023-04-21T11:58:33.418Z,20.50
2023-04-21T12:03:36.880Z,20.50
2023-04-21T12:08:41.833Z,20.50
2023-04-21T12:13:46.386Z,20.60
2023-04-21T12:18:50.373Z,20.70
2023-04-21T12:23:54.820Z,20.80
2023-04-21T12:29:00.536Z,20.80
2023-04-21T12:34:03.753Z,20.90
2023-04-21T12:39:08.476Z,21.00
2023-04-21T12:44:11.825Z,21.10
2023-04-21T12:49:15.774Z,21.10
2023-04-21T12:54:20.432Z,21.20
2023-04-21T12:59:23.738Z,21.30
2023-04-21T13:04:27.218Z,21.40
2023-04-21T13:09:32.530Z,21.50
2023-04-21T13:14:35.806Z,21.60
2023-04-21T13:19:38.928Z,21.70
2023-04-21T13:24:43.438Z,21.80
2023-04-21T13:29:47.656Z,21.80
2023-04-21T13:34:50.883Z,21.90
2023-04-21T13:39:55.489Z,22.00
2023-04-21T13:44:58.623Z,22.00
2023-04-21T13:50:01.976Z,22.00
2023-04-21T13:55:07.521Z,22.10
2023-04-21T14:00:12.156Z,22.20
2023-04-21T14:05:15.546Z,22.30
2023-04-21T14:10:20.356Z,22.30
2023-04-21T14:15:23.517Z,22.40
2023-04-21T14:20:27.015Z,22.40
2023-04-21T14:25:31.758Z,22.50
2023-04-21T14:30:35.276Z,22.60
2023-04-21T14:35:38.596Z,22.60
2023-04-21T14:40:43.227Z,22.60
2023-04-21T14:45:46.443Z,22.50
2023-04-21T14:50:49.575Z,22.60
2023-04-21T14:55:54.792Z,22.60
2023-04-21T15:00:58.313Z,22.60
2023-04-21T15:06:01.610Z,22.70
2023-04-21T15:11:06.398Z,22.70
2023-04-21T15:16:09.564Z,22.70
2023-04-21T15:21:12.746Z,22.70
2023-04-21T15:26:17.223Z,22.70
2023-04-21T15:31:20.423Z,22.70
2023-04-21T15:36:23.556Z,22.80
2023-04-21T15:41:29.622Z,22.90
2023-04-21T15:46:34.461Z,22.80
2023-04-21T15:51:37.831Z,22.80
2023-04-21T15:56:42.316Z,22.80
2023-04-21T16:01:45.605Z,22.70
2023-04-21T16:06:48.773Z,22.70
2023-04-21T16:11:53.286Z,22.60
2023-04-21T16:16:56.546Z,22.60
2023-04-21T16:21:59.924Z,22.60
2023-04-21T16:27:04.517Z,22.60
2023-04-21T16:32:08.331Z,22.60
2023-04-21T16:37:11.608Z,22.60
2023-04-21T16:42:16.190Z,22.60
2023-04-21T16:47:19.363Z,22.60
2023-04-21T16:52:22.843Z,22.60
2023-04-21T16:57:29.300Z,22.60
2023-04-21T17:02:32.740Z,22.70
2023-04-21T17:07:36.365Z,22.70
2023-04-21T17:12:40.921Z,22.80
2023-04-21T17:17:47.199Z,22.80
2023-04-21T17:22:50.478Z,22.80
2023-04-21T17:27:55.057Z,22.70
2023-04-21T17:33:12.670Z,22.60
2023-04-21T17:38:19.880Z,22.60
2023-04-21T17:43:24.421Z,22.50
2023-04-21T17:48:27.645Z,22.40
2023-04-21T17:53:30.890Z,22.40
2023-04-21T17:58:35.591Z,22.40
2023-04-21T18:03:41.449Z,22.30
2023-04-21T18:08:44.740Z,22.30
2023-04-21T18:13:49.320Z,22.20
2023-04-21T18:18:52.504Z,22.10
2023-04-21T18:23:56.738Z,22.10
2023-04-21T18:29:02.833Z,22.00
2023-04-21T18:34:06.231Z,21.80
2023-04-21T18:39:10.262Z,21.70
2023-04-21T18:44:14.858Z,21.50
2023-04-21T18:49:18.018Z,21.40
2023-04-21T18:54:21.183Z,21.30
2023-04-21T18:59:25.958Z,21.10
2023-04-21T19:04:29.154Z,20.90
2023-04-21T19:09:32.356Z,20.80
2023-04-21T19:14:46.707Z,20.60
2023-04-21T19:19:51.126Z,20.50
2023-04-21T19:24:56.209Z,20.30
2023-04-21T19:30:00.810Z,20.10
2023-04-21T19:35:04.648Z,20.00
2023-04-21T19:40:09.412Z,19.80
2023-04-21T19:45:14.244Z,19.60
2023-04-21T19:50:17.423Z,19.40
2023-04-21T19:55:20.615Z,19.20
2023-04-21T20:00:25.718Z,19.10
2023-04-21T20:05:28.978Z,19.00
2023-04-21T20:10:32.294Z,18.80
2023-04-21T20:15:37.083Z,18.60
2023-04-21T20:20:40.688Z,18.40
2023-04-21T20:25:43.943Z,18.20
2023-04-21T20:30:48.605Z,18.10
2023-04-21T20:35:52.494Z,17.90
2023-04-21T20:40:56.492Z,17.70
2023-04-21T20:46:01.908Z,17.40
2023-04-21T20:51:05.256Z,17.20
2023-04-21T20:56:08.652Z,17.10
2023-04-21T21:01:13.459Z,17.00
2023-04-21T21:06:17.122Z,17.00
2023-04-21T21:11:21.505Z,17.00
2023-04-21T21:16:26.141Z,17.00
2023-04-21T21:21:29.301Z,16.90
2023-04-21T21:26:32.467Z,16.90
2023-04-21T21:31:36.986Z,16.90
2023-04-21T21:36:40.140Z,16.90
2023-04-21T21:41:43.814Z,16.90
2023-04-21T21:46:48.841Z,16.90
2023-04-21T21:51:53.013Z,16.80
2023-04-21T21:56:56.334Z,16.80
2023-04-21T22:02:00.849Z,16.70
2023-04-21T22:07:05.201Z,16.50
2023-04-21T22:12:08.455Z,16.40
2023-04-21T22:17:13.142Z,16.30
2023-04-21T22:22:16.256Z,16.20
2023-04-21T22:27:19.349Z,16.20
2023-04-21T22:32:23.965Z,16.20
2023-04-21T22:37:27.112Z,16.10
2023-04-21T22:42:33.996Z,16.10
2023-04-21T22:47:38.602Z,16.10
2023-04-21T22:52:41.982Z,16.00
2023-04-21T22:57:45.357Z,16.00
2023-04-21T23:02:50.030Z,15.80
2023-04-21T23:07:53.267Z,15.70
2023-04-21T23:12:56.483Z,15.60
2023-04-21T23:18:01.094Z,15.60
2023-04-21T23:23:04.712Z,15.50
2023-04-21T23:28:07.962Z,15.50
2023-04-21T23:33:12.475Z,15.40
2023-04-21T23:38:15.684Z,15.40
2023-04-21T23:43:18.875Z,15.40
2023-04-21T23:48:23.356Z,15.30
2023-04-21T23:53:26.534Z,15.20
2023-04-21T23:58:29.635Z,15.10
